Terminal Aerodrome Forecast
Issued by NWS

Current Version | Previous Version | Text Only | Print | Product List | Glossary On
Versions: 1 2 3 4 5 6 7 8 9 10 11 12 13 14 15 16
324
FTUS42 KTBW 231422 AAA
TAFLAL
TAF AMD
KLAL 231422Z 2314/2412 15008KT P6SM SCT025 SCT250
      TEMPO 2314/2316 BKN025
     FM231900 16006KT P6SM SCT040 SCT250
     FM240000 13006KT P6SM BKN050 BKN250=

USA.gov is the U.S. government's official web portal to all federal, state and local government web resources and services.